createdAt,value
2023-02-06T19:07:52.566Z,19.13
2023-02-06T19:08:53.561Z,19.34
2023-02-06T19:09:53.591Z,19.55
2023-02-06T19:10:53.797Z,19.72
2023-02-06T19:11:53.730Z,19.94
2023-02-06T19:12:53.792Z,20.08
2023-02-06T19:13:53.890Z,20.23
2023-02-06T19:14:53.740Z,20.35
2023-02-06T19:15:53.891Z,20.48
2023-02-06T19:16:53.753Z,20.58
2023-02-06T19:17:53.889Z,20.69
2023-02-06T19:18:53.883Z,20.76
2023-02-06T19:19:53.939Z,20.83
2023-02-06T19:20:53.931Z,20.91
2023-02-06T19:21:53.903Z,20.97
2023-02-06T19:22:53.951Z,21.01
2023-02-06T19:23:53.975Z,21.06
2023-02-06T19:24:53.883Z,21.12
2023-02-06T19:25:53.903Z,21.16
2023-02-06T19:26:53.804Z,21.21
2023-02-06T19:27:53.791Z,21.22
2023-02-06T19:28:53.877Z,21.27
2023-02-06T19:29:53.833Z,21.31
2023-02-06T19:30:53.833Z,21.33
2023-02-06T19:31:53.835Z,21.36
2023-02-06T19:32:53.804Z,21.38
2023-02-06T19:33:53.921Z,21.40
2023-02-06T19:34:53.777Z,21.42
2023-02-06T19:35:53.864Z,21.45
2023-02-06T19:36:53.731Z,21.48
2023-02-06T19:37:53.758Z,21.48
2023-02-06T19:38:53.691Z,21.49
2023-02-06T19:39:53.730Z,21.51
2023-02-06T19:40:53.605Z,21.49
2023-02-06T19:41:53.606Z,21.51
2023-02-06T19:42:53.627Z,21.52
2023-02-06T19:43:53.552Z,21.52
2023-02-06T19:44:53.711Z,21.52
2023-02-06T19:45:53.525Z,21.53
2023-02-06T19:46:53.527Z,21.56
2023-02-06T19:47:53.556Z,21.56
2023-02-06T19:48:53.402Z,21.59
2023-02-06T19:49:53.370Z,21.58
2023-02-06T19:50:53.370Z,21.58
2023-02-06T19:51:53.409Z,21.59
2023-02-06T19:52:53.328Z,21.59
2023-02-06T19:53:53.340Z,21.63
2023-02-06T19:54:53.303Z,21.63
2023-02-06T19:55:53.213Z,21.63
2023-02-06T19:56:53.201Z,21.61
2023-02-06T19:57:53.139Z,21.64
2023-02-06T19:58:53.199Z,21.64
2023-02-06T19:59:53.216Z,21.64
2023-02-06T20:00:53.078Z,21.66
2023-02-06T20:01:53.090Z,21.64
2023-02-06T20:02:53.069Z,21.66
2023-02-06T20:03:53.016Z,21.67
2023-02-06T20:04:53.015Z,21.68
2023-02-06T20:05:26.611Z,21.673584
2023-02-06T20:06:26.735Z,21.673584
2023-02-06T20:07:26.536Z,21.673584
2023-02-06T20:08:26.525Z,21.673584
2023-02-06T20:09:26.464Z,21.683655
2023-02-06T20:10:26.455Z,21.703796
2023-02-06T20:11:26.515Z,21.713867
2023-02-06T20:12:26.414Z,21.713867
2023-02-06T20:13:26.404Z,21.713867
2023-02-06T20:14:26.367Z,21.734009
2023-02-06T20:15:26.320Z,21.734009
2023-02-06T20:16:26.470Z,21.74408
2023-02-06T20:17:26.354Z,21.734009
2023-02-06T20:18:26.246Z,21.74408
2023-02-06T20:19:26.241Z,21.74408
2023-02-06T20:20:26.248Z,21.74408
2023-02-06T20:21:26.184Z,21.75415
2023-02-06T20:22:26.186Z,21.75415
2023-02-06T20:23:26.156Z,21.734009
2023-02-06T20:24:26.149Z,21.74408
2023-02-06T20:25:26.125Z,21.74408
2023-02-06T20:26:26.153Z,21.75415
2023-02-06T20:27:26.039Z,21.74408
2023-02-06T20:28:26.112Z,21.734009
2023-02-06T20:29:26.052Z,21.734009
2023-02-06T20:30:26.010Z,21.734009
2023-02-06T20:31:26.027Z,21.734009
2023-02-06T20:32:26.982Z,21.734009
2023-02-06T20:33:25.996Z,21.734009
2023-02-06T20:34:26.009Z,21.713867
2023-02-06T20:35:25.882Z,21.713867
2023-02-06T20:36:25.929Z,21.683655
2023-02-06T20:37:25.893Z,21.703796
2023-02-06T20:38:25.904Z,21.683655
2023-02-06T20:39:25.760Z,21.683655
2023-02-06T20:40:25.757Z,21.673584
2023-02-06T20:41:25.740Z,21.673584
2023-02-06T20:42:25.744Z,21.663513
2023-02-06T20:43:25.839Z,21.663513
2023-02-06T20:44:25.802Z,21.643372
2023-02-06T20:45:25.661Z,21.633301
2023-02-06T20:46:25.742Z,21.633301
2023-02-06T20:47:25.769Z,21.633301
2023-02-06T20:48:25.621Z,21.613159
2023-02-06T20:49:25.577Z,21.593018
2023-02-06T20:50:26.476Z,21.613159
2023-02-06T20:51:25.558Z,21.593018
2023-02-06T20:52:25.493Z,21.593018
2023-02-06T20:53:25.477Z,21.593018
2023-02-06T20:54:25.468Z,21.582947
2023-02-06T20:55:25.401Z,21.593018
2023-02-06T20:56:25.363Z,21.582947
2023-02-06T20:57:25.479Z,21.582947
2023-02-06T20:58:25.339Z,21.582947
2023-02-06T20:59:25.324Z,21.582947
2023-02-06T21:00:25.342Z,21.593018
2023-02-06T21:01:25.401Z,21.593018
2023-02-06T21:02:25.226Z,21.582947
2023-02-06T21:03:25.319Z,21.593018
2023-02-06T21:04:25.230Z,21.593018
2023-02-06T21:05:25.438Z,21.613159
2023-02-06T21:06:25.281Z,21.613159
2023-02-06T21:07:25.327Z,21.593018
2023-02-06T21:08:25.177Z,21.593018
2023-02-06T21:09:25.159Z,21.613159
2023-02-06T21:10:25.119Z,21.633301
2023-02-06T21:11:25.097Z,21.613159
2023-02-06T21:12:59.474Z,21.61
2023-02-06T21:14:00.533Z,21.61
2023-02-06T21:15:00.676Z,21.61
2023-02-06T21:16:00.997Z,21.63
2023-02-06T21:17:00.897Z,21.61
2023-02-06T21:18:00.895Z,21.59
2023-02-06T21:19:01.015Z,21.61
2023-02-06T21:20:01.176Z,21.58
2023-02-06T21:21:01.146Z,21.58
2023-02-06T21:22:01.103Z,21.58
2023-02-06T21:23:01.347Z,21.56
2023-02-06T21:24:01.394Z,21.56
2023-02-06T21:25:01.426Z,21.55
2023-02-06T21:26:01.490Z,21.55
2023-02-06T21:27:01.592Z,21.53
2023-02-06T21:28:01.714Z,21.52
2023-02-06T21:29:01.848Z,21.52
2023-02-06T21:30:01.911Z,21.51
2023-02-06T21:31:02.008Z,21.49
2023-02-06T21:32:13.215Z,21.48
2023-02-06T21:33:02.198Z,21.48
2023-02-06T21:34:02.238Z,21.46
2023-02-06T21:35:02.431Z,21.46
2023-02-06T21:36:02.589Z,21.45
2023-02-06T21:37:04.440Z,21.43
2023-02-06T21:38:02.733Z,21.42
2023-02-06T21:39:02.720Z,21.42
2023-02-06T21:40:02.822Z,21.40
2023-02-06T21:41:02.839Z,21.38
2023-02-06T21:42:03.007Z,21.38
2023-02-06T21:43:03.046Z,21.37
2023-02-06T21:44:03.241Z,21.37
2023-02-06T21:45:03.281Z,21.36
2023-02-06T21:46:03.345Z,21.36
2023-02-06T21:47:03.481Z,21.36
2023-02-06T21:48:03.549Z,21.34
2023-02-06T21:49:03.682Z,21.34
2023-02-06T21:50:03.698Z,21.34
2023-02-06T21:51:03.848Z,21.34
2023-02-06T21:52:03.892Z,21.34
2023-02-06T21:53:04.017Z,21.33
2023-02-06T21:54:04.078Z,21.31
2023-02-06T21:55:05.606Z,21.31
2023-02-06T21:56:04.267Z,21.28
2023-02-06T21:57:04.397Z,21.30
2023-02-06T21:58:04.502Z,21.28
2023-02-06T21:59:04.552Z,21.28
2023-02-06T22:00:04.656Z,21.28
2023-02-06T22:01:04.744Z,21.27
2023-02-06T22:02:04.785Z,21.27
2023-02-06T22:03:05.105Z,21.27
2023-02-06T22:04:05.009Z,21.26
2023-02-06T22:05:05.201Z,21.26
2023-02-06T22:06:05.204Z,21.26
2023-02-06T22:07:05.289Z,21.26
2023-02-06T22:08:05.358Z,21.24
2023-02-06T22:09:05.510Z,21.26
2023-02-06T22:10:05.420Z,21.24
2023-02-06T22:11:05.577Z,21.24
2023-02-06T22:12:05.603Z,21.38
2023-02-06T22:13:05.850Z,21.59
2023-02-06T22:14:05.896Z,21.70
2023-02-06T22:15:05.953Z,21.77
2023-02-06T22:16:05.985Z,21.82
2023-02-06T22:17:06.078Z,21.82
2023-02-06T22:18:06.213Z,21.79
2023-02-06T22:19:06.196Z,21.79
2023-02-06T22:20:06.384Z,21.75
2023-02-06T22:21:06.437Z,21.71
2023-02-06T22:22:06.540Z,21.66
2023-02-06T22:23:06.633Z,21.63
2023-02-06T22:24:06.669Z,21.59
2023-02-06T22:25:06.777Z,21.55
2023-02-06T22:26:06.849Z,21.51
2023-02-06T22:27:06.874Z,21.46
2023-02-06T22:28:07.001Z,21.42
2023-02-06T22:29:07.121Z,21.38
2023-02-06T22:30:07.176Z,21.36
2023-02-06T22:31:07.318Z,21.33
2023-02-06T22:32:07.301Z,21.28
2023-02-06T22:33:07.349Z,21.26
2023-02-06T22:34:07.471Z,21.24
2023-02-06T22:35:07.503Z,21.22
2023-02-06T22:36:07.647Z,21.18
2023-02-06T22:37:07.725Z,21.16
2023-02-06T22:38:08.023Z,21.13
2023-02-06T22:39:07.832Z,21.12
2023-02-06T22:40:07.973Z,21.11
2023-02-06T22:41:08.758Z,21.09
2023-02-06T22:42:08.121Z,21.08
2023-02-06T22:43:08.208Z,21.05
2023-02-06T22:44:08.276Z,21.05
2023-02-06T22:45:08.307Z,21.01
2023-02-06T22:46:08.397Z,21.00
2023-02-06T22:47:08.465Z,20.98
2023-02-06T22:48:08.612Z,20.96
2023-02-06T22:49:08.715Z,20.96
2023-02-06T22:50:08.704Z,20.94
2023-02-06T22:51:08.877Z,20.94
2023-02-06T22:52:08.907Z,20.93
2023-02-06T22:53:09.006Z,20.90
2023-02-06T22:54:09.028Z,20.88
2023-02-06T22:55:09.247Z,20.87
2023-02-06T22:56:09.282Z,20.87
